sensor_id;sensor_type;location;lat;lon;timestamp;P1;durP1;ratioP1;P2;durP2;ratioP2
44822;SDS011;51097;51.984;5.650;2022-09-21T00:02:20;8.00;;;7.10;;
44822;SDS011;51097;51.984;5.650;2022-09-21T00:04:45;10.52;;;7.82;;
44822;SDS011;51097;51.984;5.650;2022-09-21T00:07:11;7.45;;;6.75;;
44822;SDS011;51097;51.984;5.650;2022-09-21T00:09:36;8.18;;;6.55;;
44822;SDS011;51097;51.984;5.650;2022-09-21T00:12:02;9.45;;;7.22;;
44822;SDS011;51097;51.984;5.650;2022-09-21T00:14:28;8.93;;;7.40;;
44822;SDS011;51097;51.984;5.650;2022-09-21T00:16:55;10.80;;;7.35;;
44822;SDS011;51097;51.984;5.650;2022-09-21T00:19:20;11.23;;;7.88;;
44822;SDS011;51097;51.984;5.650;2022-09-21T00:21:46;10.70;;;7.13;;
44822;SDS011;51097;51.984;5.650;2022-09-21T00:24:12;10.90;;;7.63;;
44822;SDS011;51097;51.984;5.650;2022-09-21T00:26:38;8.40;;;6.95;;
44822;SDS011;51097;51.984;5.650;2022-09-21T00:29:04;10.50;;;6.63;;
44822;SDS011;51097;51.984;5.650;2022-09-21T00:31:31;8.70;;;6.20;;
44822;SDS011;51097;51.984;5.650;2022-09-21T00:33:57;10.27;;;7.05;;
44822;SDS011;51097;51.984;5.650;2022-09-21T00:36:24;10.90;;;7.07;;
44822;SDS011;51097;51.984;5.650;2022-09-21T00:38:51;11.20;;;7.15;;
44822;SDS011;51097;51.984;5.650;2022-09-21T00:41:22;12.75;;;6.93;;
44822;SDS011;51097;51.984;5.650;2022-09-21T00:44:34;7.57;;;6.88;;
44822;SDS011;51097;51.984;5.650;2022-09-21T00:46:44;8.50;;;7.45;;
44822;SDS011;51097;51.984;5.650;2022-09-21T00:49:12;9.52;;;7.07;;
44822;SDS011;51097;51.984;5.650;2022-09-21T00:51:39;7.35;;;5.53;;
44822;SDS011;51097;51.984;5.650;2022-09-21T00:54:06;9.20;;;5.93;;
44822;SDS011;51097;51.984;5.650;2022-09-21T00:56:39;8.18;;;6.60;;
44822;SDS011;51097;51.984;5.650;2022-09-21T00:59:08;14.90;;;8.27;;
44822;SDS011;51097;51.984;5.650;2022-09-21T01:01:34;8.85;;;7.13;;
44822;SDS011;51097;51.984;5.650;2022-09-21T01:04:02;9.20;;;7.43;;
44822;SDS011;51097;51.984;5.650;2022-09-21T01:06:29;9.30;;;6.50;;
44822;SDS011;51097;51.984;5.650;2022-09-21T01:08:57;12.30;;;6.63;;
44822;SDS011;51097;51.984;5.650;2022-09-21T01:14:17;9.43;;;6.88;;
44822;SDS011;51097;51.984;5.650;2022-09-21T01:25:26;9.55;;;6.57;;
44822;SDS011;51097;51.984;5.650;2022-09-21T01:30:26;6.68;;;5.57;;
44822;SDS011;51097;51.984;5.650;2022-09-21T01:36:00;11.27;;;6.45;;
44822;SDS011;51097;51.984;5.650;2022-09-21T01:38:43;9.52;;;5.95;;
44822;SDS011;51097;51.984;5.650;2022-09-21T01:41:15;8.13;;;6.35;;
44822;SDS011;51097;51.984;5.650;2022-09-21T01:43:53;7.77;;;6.57;;
44822;SDS011;51097;51.984;5.650;2022-09-21T01:46:24;6.45;;;5.82;;
44822;SDS011;51097;51.984;5.650;2022-09-21T01:48:57;7.38;;;6.25;;
44822;SDS011;51097;51.984;5.650;2022-09-21T01:51:28;6.43;;;5.57;;
44822;SDS011;51097;51.984;5.650;2022-09-21T01:54:07;9.65;;;5.38;;
44822;SDS011;51097;51.984;5.650;2022-09-21T01:56:38;8.50;;;5.63;;
44822;SDS011;51097;51.984;5.650;2022-09-21T02:00:10;6.13;;;5.18;;
44822;SDS011;51097;51.984;5.650;2022-09-21T02:02:22;6.53;;;5.82;;
44822;SDS011;51097;51.984;5.650;2022-09-21T02:05:06;6.85;;;4.25;;
44822;SDS011;51097;51.984;5.650;2022-09-21T02:07:32;7.03;;;5.13;;
44822;SDS011;51097;51.984;5.650;2022-09-21T02:09:59;7.28;;;4.75;;
44822;SDS011;51097;51.984;5.650;2022-09-21T02:12:27;6.88;;;4.70;;
44822;SDS011;51097;51.984;5.650;2022-09-21T02:14:53;6.47;;;4.82;;
44822;SDS011;51097;51.984;5.650;2022-09-21T02:17:31;5.18;;;4.13;;
44822;SDS011;51097;51.984;5.650;2022-09-21T02:22:58;7.60;;;5.25;;
44822;SDS011;51097;51.984;5.650;2022-09-21T02:25:36;6.30;;;4.63;;
44822;SDS011;51097;51.984;5.650;2022-09-21T02:28:20;7.85;;;4.18;;
44822;SDS011;51097;51.984;5.650;2022-09-21T02:31:04;4.22;;;3.83;;
44822;SDS011;51097;51.984;5.650;2022-09-21T02:33:55;4.28;;;3.63;;
44822;SDS011;51097;51.984;5.650;2022-09-21T02:39:18;6.53;;;4.20;;
44822;SDS011;51097;51.984;5.650;2022-09-21T02:44:38;5.85;;;4.25;;
44822;SDS011;51097;51.984;5.650;2022-09-21T02:47:14;6.30;;;4.47;;
44822;SDS011;51097;51.984;5.650;2022-09-21T02:49:59;4.68;;;4.28;;
44822;SDS011;51097;51.984;5.650;2022-09-21T02:52:29;5.00;;;4.57;;
44822;SDS011;51097;51.984;5.650;2022-09-21T02:54:57;7.32;;;4.00;;
44822;SDS011;51097;51.984;5.650;2022-09-21T02:57:24;4.88;;;3.90;;
44822;SDS011;51097;51.984;5.650;2022-09-21T02:59:51;5.18;;;3.53;;
44822;SDS011;51097;51.984;5.650;2022-09-21T03:02:16;5.13;;;4.20;;
44822;SDS011;51097;51.984;5.650;2022-09-21T03:04:42;6.53;;;4.30;;
44822;SDS011;51097;51.984;5.650;2022-09-21T03:07:11;4.40;;;3.95;;
44822;SDS011;51097;51.984;5.650;2022-09-21T03:09:38;4.90;;;3.80;;
44822;SDS011;51097;51.984;5.650;2022-09-21T03:12:04;3.58;;;2.67;;
44822;SDS011;51097;51.984;5.650;2022-09-21T03:14:29;3.72;;;3.30;;
44822;SDS011;51097;51.984;5.650;2022-09-21T03:16:57;5.28;;;2.42;;
44822;SDS011;51097;51.984;5.650;2022-09-21T03:19:22;4.63;;;3.53;;
44822;SDS011;51097;51.984;5.650;2022-09-21T03:21:49;3.42;;;3.13;;
44822;SDS011;51097;51.984;5.650;2022-09-21T03:24:15;3.80;;;2.60;;
44822;SDS011;51097;51.984;5.650;2022-09-21T03:27:00;2.47;;;2.28;;
44822;SDS011;51097;51.984;5.650;2022-09-21T03:29:26;3.08;;;2.15;;
44822;SDS011;51097;51.984;5.650;2022-09-21T03:31:51;2.58;;;2.38;;
44822;SDS011;51097;51.984;5.650;2022-09-21T03:34:20;2.38;;;2.17;;
44822;SDS011;51097;51.984;5.650;2022-09-21T03:36:45;2.90;;;2.55;;
44822;SDS011;51097;51.984;5.650;2022-09-21T03:39:12;7.75;;;2.47;;
44822;SDS011;51097;51.984;5.650;2022-09-21T03:41:38;3.35;;;3.05;;
44822;SDS011;51097;51.984;5.650;2022-09-21T03:44:04;6.68;;;3.65;;
44822;SDS011;51097;51.984;5.650;2022-09-21T03:46:30;7.10;;;3.22;;
44822;SDS011;51097;51.984;5.650;2022-09-21T03:48:59;3.92;;;3.10;;
44822;SDS011;51097;51.984;5.650;2022-09-21T03:51:25;6.88;;;2.47;;
44822;SDS011;51097;51.984;5.650;2022-09-21T03:53:50;2.50;;;2.30;;
44822;SDS011;51097;51.984;5.650;2022-09-21T03:56:16;2.50;;;2.30;;
44822;SDS011;51097;51.984;5.650;2022-09-21T03:58:42;2.88;;;2.15;;
44822;SDS011;51097;51.984;5.650;2022-09-21T04:01:08;2.33;;;2.00;;
44822;SDS011;51097;51.984;5.650;2022-09-21T04:03:33;4.45;;;4.05;;
44822;SDS011;51097;51.984;5.650;2022-09-21T04:05:59;2.55;;;2.05;;
44822;SDS011;51097;51.984;5.650;2022-09-21T04:08:26;4.22;;;2.40;;
44822;SDS011;51097;51.984;5.650;2022-09-21T04:10:52;4.47;;;2.20;;
44822;SDS011;51097;51.984;5.650;2022-09-21T04:13:17;3.08;;;1.95;;
44822;SDS011;51097;51.984;5.650;2022-09-21T04:15:43;1.95;;;1.75;;
44822;SDS011;51097;51.984;5.650;2022-09-21T04:18:08;3.20;;;1.75;;
44822;SDS011;51097;51.984;5.650;2022-09-21T04:20:34;4.00;;;1.95;;
44822;SDS011;51097;51.984;5.650;2022-09-21T04:23:00;6.38;;;1.98;;
44822;SDS011;51097;51.984;5.650;2022-09-21T04:25:25;4.53;;;1.83;;
44822;SDS011;51097;51.984;5.650;2022-09-21T04:27:51;4.65;;;1.60;;
44822;SDS011;51097;51.984;5.650;2022-09-21T04:30:17;2.67;;;1.35;;
44822;SDS011;51097;51.984;5.650;2022-09-21T04:32:43;6.32;;;1.95;;
44822;SDS011;51097;51.984;5.650;2022-09-21T04:35:08;3.17;;;1.63;;
44822;SDS011;51097;51.984;5.650;2022-09-21T04:37:34;3.55;;;2.00;;
44822;SDS011;51097;51.984;5.650;2022-09-21T04:40:00;5.93;;;1.88;;
44822;SDS011;51097;51.984;5.650;2022-09-21T04:42:27;3.42;;;1.40;;
44822;SDS011;51097;51.984;5.650;2022-09-21T04:44:53;4.63;;;1.40;;
44822;SDS011;51097;51.984;5.650;2022-09-21T04:47:20;2.53;;;1.23;;
44822;SDS011;51097;51.984;5.650;2022-09-21T04:49:47;2.08;;;1.60;;
44822;SDS011;51097;51.984;5.650;2022-09-21T04:52:13;5.00;;;1.67;;
44822;SDS011;51097;51.984;5.650;2022-09-21T04:54:38;4.32;;;1.50;;
44822;SDS011;51097;51.984;5.650;2022-09-21T04:57:04;4.55;;;2.75;;
44822;SDS011;51097;51.984;5.650;2022-09-21T04:59:29;6.53;;;1.85;;
44822;SDS011;51097;51.984;5.650;2022-09-21T05:01:55;4.32;;;2.13;;
44822;SDS011;51097;51.984;5.650;2022-09-21T05:04:20;4.80;;;1.58;;
44822;SDS011;51097;51.984;5.650;2022-09-21T05:06:46;4.85;;;1.60;;
44822;SDS011;51097;51.984;5.650;2022-09-21T05:09:11;4.90;;;1.63;;
44822;SDS011;51097;51.984;5.650;2022-09-21T05:11:55;2.70;;;1.88;;
44822;SDS011;51097;51.984;5.650;2022-09-21T05:14:21;5.95;;;1.80;;
44822;SDS011;51097;51.984;5.650;2022-09-21T05:16:47;5.38;;;1.55;;
44822;SDS011;51097;51.984;5.650;2022-09-21T05:19:13;4.28;;;1.75;;
44822;SDS011;51097;51.984;5.650;2022-09-21T05:21:40;2.83;;;1.60;;
44822;SDS011;51097;51.984;5.650;2022-09-21T05:24:05;2.20;;;2.00;;
44822;SDS011;51097;51.984;5.650;2022-09-21T05:26:31;2.78;;;1.30;;
44822;SDS011;51097;51.984;5.650;2022-09-21T05:28:56;2.83;;;1.30;;
44822;SDS011;51097;51.984;5.650;2022-09-21T05:31:28;2.20;;;1.75;;
44822;SDS011;51097;51.984;5.650;2022-09-21T05:34:29;3.67;;;1.58;;
44822;SDS011;51097;51.984;5.650;2022-09-21T05:39:47;4.70;;;2.00;;
44822;SDS011;51097;51.984;5.650;2022-09-21T05:42:13;2.63;;;1.98;;
44822;SDS011;51097;51.984;5.650;2022-09-21T05:44:39;4.07;;;1.60;;
44822;SDS011;51097;51.984;5.650;2022-09-21T05:47:25;5.53;;;2.28;;
44822;SDS011;51097;51.984;5.650;2022-09-21T05:50:13;2.80;;;1.98;;
44822;SDS011;51097;51.984;5.650;2022-09-21T05:53:07;5.15;;;1.58;;
44822;SDS011;51097;51.984;5.650;2022-09-21T05:58:27;2.40;;;1.70;;
44822;SDS011;51097;51.984;5.650;2022-09-21T06:01:25;3.35;;;1.60;;
44822;SDS011;51097;51.984;5.650;2022-09-21T06:04:13;6.20;;;1.60;;
44822;SDS011;51097;51.984;5.650;2022-09-21T06:06:38;3.83;;;1.30;;
44822;SDS011;51097;51.984;5.650;2022-09-21T06:09:04;4.72;;;1.65;;
44822;SDS011;51097;51.984;5.650;2022-09-21T06:11:30;9.50;;;2.20;;
44822;SDS011;51097;51.984;5.650;2022-09-21T06:13:56;7.43;;;2.13;;
44822;SDS011;51097;51.984;5.650;2022-09-21T06:16:21;12.65;;;2.42;;
44822;SDS011;51097;51.984;5.650;2022-09-21T06:18:47;10.90;;;3.17;;
44822;SDS011;51097;51.984;5.650;2022-09-21T06:21:12;7.78;;;3.05;;
44822;SDS011;51097;51.984;5.650;2022-09-21T06:23:38;10.35;;;3.40;;
44822;SDS011;51097;51.984;5.650;2022-09-21T06:26:04;8.93;;;3.40;;
44822;SDS011;51097;51.984;5.650;2022-09-21T06:28:29;9.73;;;4.05;;
44822;SDS011;51097;51.984;5.650;2022-09-21T06:30:55;8.68;;;3.72;;
44822;SDS011;51097;51.984;5.650;2022-09-21T06:33:22;12.43;;;3.63;;
44822;SDS011;51097;51.984;5.650;2022-09-21T06:35:53;11.18;;;4.75;;
44822;SDS011;51097;51.984;5.650;2022-09-21T06:38:20;10.35;;;3.85;;
44822;SDS011;51097;51.984;5.650;2022-09-21T06:40:46;4.60;;;2.88;;
44822;SDS011;51097;51.984;5.650;2022-09-21T06:43:11;9.40;;;3.75;;
44822;SDS011;51097;51.984;5.650;2022-09-21T06:45:37;5.18;;;3.40;;
44822;SDS011;51097;51.984;5.650;2022-09-21T06:48:03;6.55;;;3.35;;
44822;SDS011;51097;51.984;5.650;2022-09-21T06:50:28;6.15;;;3.25;;
44822;SDS011;51097;51.984;5.650;2022-09-21T06:52:54;6.95;;;3.88;;
44822;SDS011;51097;51.984;5.650;2022-09-21T06:55:20;6.03;;;3.35;;
44822;SDS011;51097;51.984;5.650;2022-09-21T06:57:45;7.05;;;3.83;;
44822;SDS011;51097;51.984;5.650;2022-09-21T07:00:11;9.73;;;3.65;;
44822;SDS011;51097;51.984;5.650;2022-09-21T07:02:41;5.72;;;3.72;;
44822;SDS011;51097;51.984;5.650;2022-09-21T07:05:07;9.23;;;4.53;;
44822;SDS011;51097;51.984;5.650;2022-09-21T07:07:33;14.88;;;4.57;;
44822;SDS011;51097;51.984;5.650;2022-09-21T07:10:00;18.92;;;5.20;;
44822;SDS011;51097;51.984;5.650;2022-09-21T07:12:27;21.20;;;4.70;;
44822;SDS011;51097;51.984;5.650;2022-09-21T07:14:53;29.70;;;5.70;;
44822;SDS011;51097;51.984;5.650;2022-09-21T07:17:19;24.55;;;6.38;;
44822;SDS011;51097;51.984;5.650;2022-09-21T07:19:45;20.38;;;6.15;;
44822;SDS011;51097;51.984;5.650;2022-09-21T07:22:11;13.27;;;5.90;;
44822;SDS011;51097;51.984;5.650;2022-09-21T07:24:37;15.05;;;5.28;;
44822;SDS011;51097;51.984;5.650;2022-09-21T07:27:02;16.25;;;6.28;;
44822;SDS011;51097;51.984;5.650;2022-09-21T07:29:29;12.73;;;6.40;;
44822;SDS011;51097;51.984;5.650;2022-09-21T07:31:54;10.30;;;6.38;;
44822;SDS011;51097;51.984;5.650;2022-09-21T07:34:20;14.13;;;6.88;;
44822;SDS011;51097;51.984;5.650;2022-09-21T07:36:45;16.55;;;6.22;;
44822;SDS011;51097;51.984;5.650;2022-09-21T07:39:11;11.07;;;6.57;;
44822;SDS011;51097;51.984;5.650;2022-09-21T07:41:37;11.63;;;6.63;;
44822;SDS011;51097;51.984;5.650;2022-09-21T07:44:03;13.40;;;7.13;;
44822;SDS011;51097;51.984;5.650;2022-09-21T07:46:29;14.30;;;7.03;;
44822;SDS011;51097;51.984;5.650;2022-09-21T07:48:54;13.65;;;7.88;;
44822;SDS011;51097;51.984;5.650;2022-09-21T07:51:20;13.65;;;7.40;;
44822;SDS011;51097;51.984;5.650;2022-09-21T07:53:48;13.23;;;6.68;;
44822;SDS011;51097;51.984;5.650;2022-09-21T07:56:20;8.55;;;5.45;;
44822;SDS011;51097;51.984;5.650;2022-09-21T07:58:46;19.20;;;5.40;;
44822;SDS011;51097;51.984;5.650;2022-09-21T08:01:31;7.15;;;3.83;;
44822;SDS011;51097;51.984;5.650;2022-09-21T08:04:07;11.68;;;4.43;;
44822;SDS011;51097;51.984;5.650;2022-09-21T08:06:34;8.57;;;4.05;;
44822;SDS011;51097;51.984;5.650;2022-09-21T08:09:03;9.23;;;3.75;;
44822;SDS011;51097;51.984;5.650;2022-09-21T08:11:30;5.63;;;3.30;;
44822;SDS011;51097;51.984;5.650;2022-09-21T08:13:57;12.88;;;4.53;;
44822;SDS011;51097;51.984;5.650;2022-09-21T08:16:25;10.98;;;3.45;;
44822;SDS011;51097;51.984;5.650;2022-09-21T08:18:52;5.97;;;2.88;;
44822;SDS011;51097;51.984;5.650;2022-09-21T08:21:19;8.90;;;3.50;;
44822;SDS011;51097;51.984;5.650;2022-09-21T08:23:45;12.18;;;2.72;;
44822;SDS011;51097;51.984;5.650;2022-09-21T08:26:13;10.00;;;3.25;;
44822;SDS011;51097;51.984;5.650;2022-09-21T08:28:42;11.03;;;3.50;;
44822;SDS011;51097;51.984;5.650;2022-09-21T08:31:09;9.20;;;2.90;;
44822;SDS011;51097;51.984;5.650;2022-09-21T08:33:35;12.43;;;3.75;;
44822;SDS011;51097;51.984;5.650;2022-09-21T08:36:01;5.55;;;2.13;;
44822;SDS011;51097;51.984;5.650;2022-09-21T08:38:31;10.98;;;3.25;;
44822;SDS011;51097;51.984;5.650;2022-09-21T08:40:58;10.65;;;2.50;;
44822;SDS011;51097;51.984;5.650;2022-09-21T08:43:31;9.38;;;2.15;;
44822;SDS011;51097;51.984;5.650;2022-09-21T08:46:17;11.10;;;2.80;;
44822;SDS011;51097;51.984;5.650;2022-09-21T08:48:50;7.22;;;2.58;;
44822;SDS011;51097;51.984;5.650;2022-09-21T08:51:24;6.82;;;2.42;;
44822;SDS011;51097;51.984;5.650;2022-09-21T08:53:55;9.70;;;2.60;;
44822;SDS011;51097;51.984;5.650;2022-09-21T08:56:24;8.88;;;2.28;;
44822;SDS011;51097;51.984;5.650;2022-09-21T08:58:51;5.18;;;2.38;;
44822;SDS011;51097;51.984;5.650;2022-09-21T09:18:51;6.63;;;3.05;;
44822;SDS011;51097;51.984;5.650;2022-09-21T09:21:39;3.42;;;2.40;;
44822;SDS011;51097;51.984;5.650;2022-09-21T09:24:08;8.18;;;2.75;;
44822;SDS011;51097;51.984;5.650;2022-09-21T09:26:59;10.20;;;3.38;;
44822;SDS011;51097;51.984;5.650;2022-09-21T09:29:42;7.68;;;2.70;;
44822;SDS011;51097;51.984;5.650;2022-09-21T09:32:19;5.80;;;2.75;;
44822;SDS011;51097;51.984;5.650;2022-09-21T09:35:14;3.67;;;2.65;;
44822;SDS011;51097;51.984;5.650;2022-09-21T09:37:48;6.85;;;2.17;;
44822;SDS011;51097;51.984;5.650;2022-09-21T09:40:17;5.57;;;2.67;;
44822;SDS011;51097;51.984;5.650;2022-09-21T09:46:32;5.28;;;2.35;;
44822;SDS011;51097;51.984;5.650;2022-09-21T09:51:37;8.15;;;2.17;;
44822;SDS011;51097;51.984;5.650;2022-09-21T09:54:04;6.70;;;2.10;;
44822;SDS011;51097;51.984;5.650;2022-09-21T09:56:36;3.05;;;2.20;;
44822;SDS011;51097;51.984;5.650;2022-09-21T09:59:02;8.95;;;2.00;;
44822;SDS011;51097;51.984;5.650;2022-09-21T10:04:12;5.13;;;1.98;;
44822;SDS011;51097;51.984;5.650;2022-09-21T10:06:42;5.53;;;2.35;;
44822;SDS011;51097;51.984;5.650;2022-09-21T10:12:00;6.68;;;2.10;;
44822;SDS011;51097;51.984;5.650;2022-09-21T10:14:48;6.82;;;2.03;;
44822;SDS011;51097;51.984;5.650;2022-09-21T10:17:20;4.80;;;2.20;;
44822;SDS011;51097;51.984;5.650;2022-09-21T10:19:48;8.32;;;1.90;;
44822;SDS011;51097;51.984;5.650;2022-09-21T10:22:24;5.53;;;2.97;;
44822;SDS011;51097;51.984;5.650;2022-09-21T10:24:51;5.70;;;2.40;;
44822;SDS011;51097;51.984;5.650;2022-09-21T10:27:27;6.50;;;1.70;;
44822;SDS011;51097;51.984;5.650;2022-09-21T10:29:57;7.03;;;1.67;;
44822;SDS011;51097;51.984;5.650;2022-09-21T10:32:26;4.32;;;1.42;;
44822;SDS011;51097;51.984;5.650;2022-09-21T10:37:43;4.20;;;1.52;;
44822;SDS011;51097;51.984;5.650;2022-09-21T10:42:44;6.25;;;1.50;;
44822;SDS011;51097;51.984;5.650;2022-09-21T10:47:51;4.70;;;1.52;;
44822;SDS011;51097;51.984;5.650;2022-09-21T10:50:26;3.30;;;1.00;;
44822;SDS011;51097;51.984;5.650;2022-09-21T10:55:32;3.03;;;1.25;;
44822;SDS011;51097;51.984;5.650;2022-09-21T10:58:06;5.20;;;1.33;;
44822;SDS011;51097;51.984;5.650;2022-09-21T11:00:40;2.90;;;1.00;;
44822;SDS011;51097;51.984;5.650;2022-09-21T11:05:55;4.22;;;0.90;;
44822;SDS011;51097;51.984;5.650;2022-09-21T11:08:28;3.58;;;1.10;;
44822;SDS011;51097;51.984;5.650;2022-09-21T11:11:11;3.78;;;0.82;;
44822;SDS011;51097;51.984;5.650;2022-09-21T11:13:46;14.43;;;3.50;;
44822;SDS011;51097;51.984;5.650;2022-09-21T11:16:23;8.32;;;1.20;;
44822;SDS011;51097;51.984;5.650;2022-09-21T11:39:12;6.63;;;1.58;;
44822;SDS011;51097;51.984;5.650;2022-09-21T11:41:54;1.73;;;1.55;;
44822;SDS011;51097;51.984;5.650;2022-09-21T11:44:32;3.10;;;1.00;;
44822;SDS011;51097;51.984;5.650;2022-09-21T11:52:35;3.53;;;1.20;;
44822;SDS011;51097;51.984;5.650;2022-09-21T11:55:31;2.95;;;0.85;;
44822;SDS011;51097;51.984;5.650;2022-09-21T11:58:11;6.45;;;0.75;;
44822;SDS011;51097;51.984;5.650;2022-09-21T12:09:58;4.35;;;1.13;;
44822;SDS011;51097;51.984;5.650;2022-09-21T12:15:15;1.85;;;0.93;;
44822;SDS011;51097;51.984;5.650;2022-09-21T12:20:31;3.17;;;1.08;;
44822;SDS011;51097;51.984;5.650;2022-09-21T12:23:17;6.10;;;0.80;;
44822;SDS011;51097;51.984;5.650;2022-09-21T12:26:03;2.78;;;0.73;;
44822;SDS011;51097;51.984;5.650;2022-09-21T12:28:33;3.03;;;0.93;;
44822;SDS011;51097;51.984;5.650;2022-09-21T12:31:21;1.27;;;0.85;;
44822;SDS011;51097;51.984;5.650;2022-09-21T12:36:31;4.22;;;1.13;;
44822;SDS011;51097;51.984;5.650;2022-09-21T12:44:33;6.05;;;0.90;;
44822;SDS011;51097;51.984;5.650;2022-09-21T12:47:51;3.70;;;0.82;;
44822;SDS011;51097;51.984;5.650;2022-09-21T12:50:15;4.03;;;0.88;;
44822;SDS011;51097;51.984;5.650;2022-09-21T12:52:47;5.15;;;0.95;;
44822;SDS011;51097;51.984;5.650;2022-09-21T12:58:00;4.20;;;1.42;;
44822;SDS011;51097;51.984;5.650;2022-09-21T13:00:39;3.42;;;1.00;;
44822;SDS011;51097;51.984;5.650;2022-09-21T13:03:33;3.13;;;0.95;;
44822;SDS011;51097;51.984;5.650;2022-09-21T13:09:07;4.55;;;1.10;;
44822;SDS011;51097;51.984;5.650;2022-09-21T13:11:47;5.93;;;0.90;;
44822;SDS011;51097;51.984;5.650;2022-09-21T13:14:20;3.60;;;0.88;;
44822;SDS011;51097;51.984;5.650;2022-09-21T13:16:53;3.55;;;0.60;;
44822;SDS011;51097;51.984;5.650;2022-09-21T13:19:26;2.05;;;0.60;;
44822;SDS011;51097;51.984;5.650;2022-09-21T13:27:58;4.15;;;0.77;;
44822;SDS011;51097;51.984;5.650;2022-09-21T13:30:47;2.85;;;1.33;;
44822;SDS011;51097;51.984;5.650;2022-09-21T13:33:36;2.72;;;1.08;;
44822;SDS011;51097;51.984;5.650;2022-09-21T13:37:11;1.50;;;0.50;;
44822;SDS011;51097;51.984;5.650;2022-09-21T13:39:13;2.85;;;1.02;;
44822;SDS011;51097;51.984;5.650;2022-09-21T13:41:41;2.72;;;0.50;;
44822;SDS011;51097;51.984;5.650;2022-09-21T13:46:58;3.80;;;0.80;;
44822;SDS011;51097;51.984;5.650;2022-09-21T13:49:44;3.10;;;0.85;;
44822;SDS011;51097;51.984;5.650;2022-09-21T13:57:20;3.13;;;0.80;;
44822;SDS011;51097;51.984;5.650;2022-09-21T14:02:34;1.88;;;0.77;;
44822;SDS011;51097;51.984;5.650;2022-09-21T14:05:05;3.10;;;1.45;;
44822;SDS011;51097;51.984;5.650;2022-09-21T14:08:01;3.08;;;0.68;;
44822;SDS011;51097;51.984;5.650;2022-09-21T14:10:27;2.40;;;0.68;;
44822;SDS011;51097;51.984;5.650;2022-09-21T14:12:56;4.50;;;0.70;;
44822;SDS011;51097;51.984;5.650;2022-09-21T14:23:31;3.42;;;1.25;;
44822;SDS011;51097;51.984;5.650;2022-09-21T14:25:58;1.33;;;0.77;;
44822;SDS011;51097;51.984;5.650;2022-09-21T14:28:43;2.15;;;0.70;;
44822;SDS011;51097;51.984;5.650;2022-09-21T14:31:19;2.30;;;0.90;;
44822;SDS011;51097;51.984;5.650;2022-09-21T14:33:51;2.53;;;0.98;;
44822;SDS011;51097;51.984;5.650;2022-09-21T14:36:26;3.30;;;0.77;;
44822;SDS011;51097;51.984;5.650;2022-09-21T14:39:05;3.63;;;0.70;;
44822;SDS011;51097;51.984;5.650;2022-09-21T14:41:43;2.33;;;0.73;;
44822;SDS011;51097;51.984;5.650;2022-09-21T14:44:19;2.70;;;1.00;;
44822;SDS011;51097;51.984;5.650;2022-09-21T14:49:33;4.05;;;0.80;;
44822;SDS011;51097;51.984;5.650;2022-09-21T14:52:20;1.92;;;0.45;;
44822;SDS011;51097;51.984;5.650;2022-09-21T14:58:07;2.90;;;0.80;;
44822;SDS011;51097;51.984;5.650;2022-09-21T15:00:43;3.58;;;1.00;;
44822;SDS011;51097;51.984;5.650;2022-09-21T15:12:36;5.43;;;0.70;;
44822;SDS011;51097;51.984;5.650;2022-09-21T15:15:14;4.57;;;0.80;;
44822;SDS011;51097;51.984;5.650;2022-09-21T15:17:53;3.83;;;0.70;;
44822;SDS011;51097;51.984;5.650;2022-09-21T15:20:23;3.13;;;1.08;;
44822;SDS011;51097;51.984;5.650;2022-09-21T15:22:52;2.28;;;0.65;;
44822;SDS011;51097;51.984;5.650;2022-09-21T15:25:23;4.78;;;0.88;;
44822;SDS011;51097;51.984;5.650;2022-09-21T15:27:55;1.35;;;0.60;;
44822;SDS011;51097;51.984;5.650;2022-09-21T15:30:22;3.13;;;0.82;;
44822;SDS011;51097;51.984;5.650;2022-09-21T15:32:58;1.87;;;1.00;;
44822;SDS011;51097;51.984;5.650;2022-09-21T15:35:30;2.45;;;0.70;;
44822;SDS011;51097;51.984;5.650;2022-09-21T15:37:56;1.70;;;0.52;;
44822;SDS011;51097;51.984;5.650;2022-09-21T15:40:27;3.65;;;0.80;;
44822;SDS011;51097;51.984;5.650;2022-09-21T15:45:30;3.30;;;0.75;;
44822;SDS011;51097;51.984;5.650;2022-09-21T15:48:15;2.65;;;1.38;;
44822;SDS011;51097;51.984;5.650;2022-09-21T15:50:41;1.40;;;0.60;;
44822;SDS011;51097;51.984;5.650;2022-09-21T15:53:30;2.60;;;0.90;;
44822;SDS011;51097;51.984;5.650;2022-09-21T15:55:58;3.25;;;1.00;;
44822;SDS011;51097;51.984;5.650;2022-09-21T15:58:29;2.33;;;0.60;;
44822;SDS011;51097;51.984;5.650;2022-09-21T16:01:01;2.95;;;0.88;;
44822;SDS011;51097;51.984;5.650;2022-09-21T16:03:34;5.97;;;1.00;;
44822;SDS011;51097;51.984;5.650;2022-09-21T16:05:59;4.53;;;1.05;;
44822;SDS011;51097;51.984;5.650;2022-09-21T16:08:49;1.33;;;0.60;;
44822;SDS011;51097;51.984;5.650;2022-09-21T16:11:36;3.42;;;1.40;;
44822;SDS011;51097;51.984;5.650;2022-09-21T16:14:11;5.70;;;0.93;;
44822;SDS011;51097;51.984;5.650;2022-09-21T16:20:24;3.78;;;1.02;;
44822;SDS011;51097;51.984;5.650;2022-09-21T16:22:51;2.55;;;0.60;;
44822;SDS011;51097;51.984;5.650;2022-09-21T16:25:32;4.05;;;0.85;;
44822;SDS011;51097;51.984;5.650;2022-09-21T16:30:41;6.28;;;1.80;;
44822;SDS011;51097;51.984;5.650;2022-09-21T16:38:57;0.73;;;0.60;;
44822;SDS011;51097;51.984;5.650;2022-09-21T16:41:33;4.47;;;1.10;;
44822;SDS011;51097;51.984;5.650;2022-09-21T16:46:28;5.50;;;0.90;;
44822;SDS011;51097;51.984;5.650;2022-09-21T16:48:56;5.82;;;0.80;;
44822;SDS011;51097;51.984;5.650;2022-09-21T16:51:24;1.38;;;0.70;;
44822;SDS011;51097;51.984;5.650;2022-09-21T16:53:52;4.43;;;1.08;;
44822;SDS011;51097;51.984;5.650;2022-09-21T16:56:18;2.55;;;0.70;;
44822;SDS011;51097;51.984;5.650;2022-09-21T16:58:44;4.50;;;1.17;;
44822;SDS011;51097;51.984;5.650;2022-09-21T17:01:13;3.35;;;0.85;;
44822;SDS011;51097;51.984;5.650;2022-09-21T17:03:42;3.63;;;0.90;;
44822;SDS011;51097;51.984;5.650;2022-09-21T17:06:17;1.95;;;0.90;;
44822;SDS011;51097;51.984;5.650;2022-09-21T17:08:44;4.80;;;1.25;;
44822;SDS011;51097;51.984;5.650;2022-09-21T17:11:13;3.47;;;1.30;;
44822;SDS011;51097;51.984;5.650;2022-09-21T17:13:47;5.07;;;1.13;;
44822;SDS011;51097;51.984;5.650;2022-09-21T17:16:13;2.38;;;0.90;;
44822;SDS011;51097;51.984;5.650;2022-09-21T17:18:42;2.33;;;0.90;;
44822;SDS011;51097;51.984;5.650;2022-09-21T17:21:08;3.88;;;0.73;;
44822;SDS011;51097;51.984;5.650;2022-09-21T17:23:34;2.58;;;1.13;;
44822;SDS011;51097;51.984;5.650;2022-09-21T17:26:00;1.55;;;0.70;;
44822;SDS011;51097;51.984;5.650;2022-09-21T17:28:25;1.40;;;0.80;;
44822;SDS011;51097;51.984;5.650;2022-09-21T17:30:52;2.35;;;0.70;;
44822;SDS011;51097;51.984;5.650;2022-09-21T17:33:19;2.05;;;0.98;;
44822;SDS011;51097;51.984;5.650;2022-09-21T17:35:45;3.70;;;0.90;;
44822;SDS011;51097;51.984;5.650;2022-09-21T17:38:12;6.43;;;0.80;;
44822;SDS011;51097;51.984;5.650;2022-09-21T17:40:38;4.57;;;0.70;;
44822;SDS011;51097;51.984;5.650;2022-09-21T17:48:59;3.65;;;1.38;;
44822;SDS011;51097;51.984;5.650;2022-09-21T17:51:25;2.35;;;0.90;;
44822;SDS011;51097;51.984;5.650;2022-09-21T17:54:20;5.43;;;1.50;;
44822;SDS011;51097;51.984;5.650;2022-09-21T17:56:47;2.53;;;1.30;;
44822;SDS011;51097;51.984;5.650;2022-09-21T18:01:47;3.15;;;1.50;;
44822;SDS011;51097;51.984;5.650;2022-09-21T18:04:12;6.00;;;1.27;;
44822;SDS011;51097;51.984;5.650;2022-09-21T18:06:38;2.58;;;1.00;;
44822;SDS011;51097;51.984;5.650;2022-09-21T18:09:04;4.15;;;1.05;;
44822;SDS011;51097;51.984;5.650;2022-09-21T18:20:32;4.13;;;1.50;;
44822;SDS011;51097;51.984;5.650;2022-09-21T18:25:39;5.30;;;1.50;;
44822;SDS011;51097;51.984;5.650;2022-09-21T18:28:22;4.45;;;1.98;;
44822;SDS011;51097;51.984;5.650;2022-09-21T18:36:32;6.03;;;2.05;;
44822;SDS011;51097;51.984;5.650;2022-09-21T18:42:20;8.02;;;3.67;;
44822;SDS011;51097;51.984;5.650;2022-09-21T18:44:52;11.77;;;3.72;;